Historyczne dane pomiarowe

Dodano dane terminowe – wersja testowa.

Dane z okresu 1951-2019

Wersja bazy: 1.34 [2019-03-16, lista zmian], aktualizacja planowana na 2019-04-15

Dane meteo z obszaru Polski uzyskane na podstawie danych udostępnionych przez Instytut Meteorologii i Gospodarki Wodnej – Państwowy Instytut Badawczy.

 

Wybierz Datę:    

       

TemperaturaWilgotnośćWiatrCiśnienieOpadyŚniegCzas trwania zjawisk
 Stacja t tx tn tng RH VA  wxwx mslp ppp RRR   cm mm wxwxwxwxwxwxwx
1961-08-14 14.3 19.5 10.8--- 2.7 2.0---- 0.0------------
1961-08-13 13.6 17.9 12.0--- 8.0 3.0---- 10.7------------
1961-08-12 18.7 20.6 16.9--- 6.0 2.0---- 10.4------------
1961-08-11 23.4 34.0 18.4--- 0.7 2.0---- 0.7------------
1961-08-10 24.2 29.2 17.8--- 1.3 2.0---- 0.0------------
1961-08-09 22.0 29.0 13.6--- 0.0 2.0---- 2.5------------
1961-08-08 18.7 21.4 16.0--- 8.0 1.0---- 0.3------------
1961-08-07 23.0 31.8 17.0--- 1.3 3.0---- 5.0------------
1961-08-06 24.5 30.8 13.2--- 0.0 4.0---- 0.0------------
1961-08-05 18.6 24.6 15.0--- 4.7 2.0---- 0.0------------
1961-08-04 16.0 21.8 9.4--- 0.0 2.0---- 0.0------------
1961-08-03 18.3 24.0 13.2--- 4.7 3.0---- 1.2------------
1961-08-02 18.3 26.4 9.2--- 0.0 2.0---- 0.0------------
1961-08-01 14.6 21.2 11.0--- 4.7 4.0---- 0.0------------
1961-07-31 14.1 17.8 12.0--- 6.0 5.0---- 0.4------------
1961-07-30 13.4 14.8 12.4--- 8.0 4.0---- 23.7------------
1961-07-29 14.3 19.9 12.4--- 8.0 3.0---- 13.0------------
1961-07-28 20.8 27.2 16.2--- 6.3 3.0---- 3.5------------
1961-07-27 22.2 27.4 13.2--- 4.7 3.0---- 1.8------------
1961-07-26 17.4 22.2 12.2--- 6.0 3.0---- 0.0------------
1961-07-25 15.0 18.9 10.2--- 3.7 3.0---- 0.0------------
1961-07-24 14.8 19.3 11.6--- 6.0 3.0---- 0.0------------
1961-07-23 15.9 21.0 12.0--- 4.7 3.0---- 0.0------------
1961-07-22 14.9 20.6 12.4--- 4.7 3.0---- 1.4------------
1961-07-21 15.5 21.0 12.0--- 4.7 4.0---- 3.5------------
1961-07-20 16.2 21.8 8.6--- 4.0 3.0---- 0.0------------
1961-07-19 13.6 20.8 7.7--- 3.0 2.0---- 14.8------------
1961-07-18 13.8 18.7 8.9--- 2.7 3.0---- 0.4------------
1961-07-17 15.6 23.0 9.8--- 2.7 3.0---- 9.0------------
1961-07-16 15.3 22.8 11.4--- 5.3 4.0---- 0.0------------
1961-07-15 17.4 24.0 9.2--- 2.7 4.0---- 8.0------------
1961-07-14 15.5 20.8 13.0--- 4.0 4.0---- 0.0------------
1961-07-13 21.5 29.8 13.8--- 3.0 4.0---- 3.6------------
1961-07-12 18.9 27.2 9.2--- 3.0 3.0---- 2.2------------
1961-07-11 14.9 22.8 9.4--- 2.0 3.0---- 0.0------------
1961-07-10 14.3 20.2 10.0--- 6.0 4.0---- 0.4------------
1961-07-09 16.4 24.0 7.8--- 4.3 3.0---- 0.0------------
1961-07-08 14.8 22.0 8.0--- 0.0 4.0---- 0.0------------
1961-07-07 14.1 17.9 9.0--- 6.3 3.0---- 0.0------------
1961-07-06 12.8 16.7 6.3--- 3.7 4.0---- 0.5------------
1961-07-05 15.0 19.9 12.2--- 2.7 4.0---- 0.0------------
1961-07-04 22.5 30.4 16.9--- 4.7 4.0---- 9.3------------
1961-07-03 24.1 31.6 11.4--- 0.7 3.0---- 0.0------------
1961-07-02 21.9 30.2 9.8--- 0.0 2.0---- 0.0------------
1961-07-01 19.8 27.0 10.0--- 0.0 3.0---- 0.0------------
1961-06-30 18.3 24.6 11.2--- 0.0 3.0---- 0.0------------
1961-06-29 16.6 20.8 8.6--- 6.3 4.0---- 0.0------------
1961-06-28 14.8 22.8 12.8--- 8.0 5.0---- 6.6------------
1961-06-27 25.0 32.2 16.4--- 2.3 6.0---- 9.4------------
1961-06-26 22.1 30.8 12.2--- 3.0 3.0---- 8.7------------
1961-06-25 21.6 29.6 11.4--- 0.0 5.0---- 0.0------------
1961-06-24 20.0 25.6 11.4--- 0.0 5.0---- 0.0------------
1961-06-23 18.6 23.0 15.4--- 4.0 3.0---- 4.6------------
1961-06-22 17.7 23.8 10.1--- 0.0 4.0---- 3.8------------
1961-06-21 18.3 24.0 4.6--- 1.3 3.0---- 0.0------------
1961-06-20 15.0 21.2 7.5--- 0.7 4.0---- 0.0------------
1961-06-19 19.2 24.2 14.9--- 2.3 3.0---- 0.0------------
1961-06-18 20.0 26.8 8.0--- 3.0 3.0---- 0.0------------
1961-06-17 16.4 22.8 6.3--- 0.7 4.0---- 0.0------------
1961-06-16 12.9 19.3 10.2--- 3.7 3.0---- 0.0------------
340.9 ms

 

Źródłem pochodzenia danych jest Instytut Meteorologii i Gospodarki Wodnej – Państwowy Instytut Badawczy. Dane Instytutu Meteorologii i Gospodarki Wodnej – Państwowego Instytutu Badawczego zostały przetworzone.

Dane źródłowe można odnaleźć na stronie https://dane.imgw.pl